createdAt,value
2023-01-27T00:01:32.679Z,98472.53
2023-01-27T00:06:38.155Z,98464.44
2023-01-27T00:12:00.287Z,98469.66
2023-01-27T00:17:04.901Z,98477.44
2023-01-27T00:22:28.928Z,98481.38
2023-01-27T00:27:34.599Z,98480.56
2023-01-27T00:32:58.609Z,98482.50
2023-01-27T00:38:04.339Z,98480.66
2023-01-27T00:43:10.263Z,98481.97
2023-01-27T00:48:14.686Z,98488.53
2023-01-27T00:53:20.512Z,98487.59
2023-01-27T00:58:24.842Z,98493.38
2023-01-27T01:03:31.530Z,98502.75
2023-01-27T01:08:39.119Z,98495.56
2023-01-27T01:13:44.555Z,98493.16
2023-01-27T01:18:49.935Z,98492.66
2023-01-27T01:23:56.249Z,98490.69
2023-01-27T01:29:01.008Z,98500.16
2023-01-27T01:34:05.852Z,98505.38
2023-01-27T01:39:11.425Z,98511.38
2023-01-27T01:44:24.007Z,98504.63
2023-01-27T01:49:34.409Z,98493.25
2023-01-27T01:54:44.710Z,98500.59
2023-01-27T01:59:55.404Z,98486.06
2023-01-27T02:05:05.523Z,98487.81
2023-01-27T02:10:12.588Z,98485.88
2023-01-27T02:15:17.878Z,98483.50
2023-01-27T02:20:33.712Z,98473.38
2023-01-27T02:25:52.172Z,98471.00
2023-01-27T02:30:57.919Z,98484.00
2023-01-27T02:36:08.508Z,98479.31
2023-01-27T02:41:21.996Z,98476.66
2023-01-27T02:46:27.400Z,98466.94
2023-01-27T02:51:31.990Z,98464.41
2023-01-27T02:56:38.832Z,98466.44
2023-01-27T03:01:44.615Z,98457.22
2023-01-27T03:06:48.933Z,98460.63
2023-01-27T03:12:12.309Z,98470.13
2023-01-27T03:17:34.284Z,98465.91
2023-01-27T03:22:39.170Z,98465.75
2023-01-27T03:27:45.820Z,98472.19
2023-01-27T03:33:04.040Z,98472.75
2023-01-27T03:38:44.678Z,98479.16
2023-01-27T03:44:08.684Z,98479.97
2023-01-27T03:49:13.402Z,98490.22
2023-01-27T03:54:17.587Z,98489.50
2023-01-27T03:59:23.519Z,98500.47
2023-01-27T04:04:45.618Z,98499.19
2023-01-27T04:09:50.340Z,98491.59
2023-01-27T04:14:55.952Z,98503.94
2023-01-27T04:20:00.563Z,98495.88
2023-01-27T04:25:06.517Z,98499.19
2023-01-27T04:30:14.194Z,98500.13
2023-01-27T04:35:21.545Z,98513.47
2023-01-27T04:40:27.720Z,98517.22
2023-01-27T04:45:33.428Z,98520.41
2023-01-27T04:50:38.173Z,98527.34
2023-01-27T04:55:44.878Z,98517.03
2023-01-27T05:00:50.645Z,98514.38
2023-01-27T05:05:54.985Z,98523.06
2023-01-27T05:10:59.274Z,98518.78
2023-01-27T05:16:11.863Z,98522.06
2023-01-27T05:21:18.887Z,98518.78
2023-01-27T05:26:26.102Z,98515.28
2023-01-27T05:31:32.835Z,98509.63
2023-01-27T05:36:37.462Z,98520.59
2023-01-27T05:41:42.654Z,98519.31
2023-01-27T05:46:48.596Z,98525.22
2023-01-27T05:51:53.136Z,98510.81
2023-01-27T05:56:57.573Z,98524.44
2023-01-27T06:02:03.200Z,98526.00
2023-01-27T06:07:07.657Z,98528.47
2023-01-27T06:12:11.890Z,98536.97
2023-01-27T06:17:17.935Z,98539.53
2023-01-27T06:22:22.174Z,98548.84
2023-01-27T06:27:27.101Z,98556.00
2023-01-27T06:32:32.687Z,98560.38
2023-01-27T06:37:37.544Z,98557.72
2023-01-27T06:42:44.565Z,98556.09
2023-01-27T06:47:57.053Z,98569.25
2023-01-27T06:53:03.071Z,98580.59
2023-01-27T06:58:07.288Z,98581.84
2023-01-27T07:08:17.986Z,98589.91
2023-01-27T07:13:22.565Z,98587.25
2023-01-27T07:18:28.194Z,98596.47
2023-01-27T07:23:32.839Z,98582.59
2023-01-27T07:28:37.357Z,98582.75
2023-01-27T07:33:43.051Z,98589.59
2023-01-27T07:38:51.958Z,98592.09
2023-01-27T07:43:56.417Z,98603.25
2023-01-27T07:49:05.451Z,98609.81
2023-01-27T07:54:10.089Z,98599.13
2023-01-27T07:59:14.783Z,98596.47
2023-01-27T08:04:20.723Z,98594.66
2023-01-27T08:09:25.180Z,98600.41
2023-01-27T08:14:29.630Z,98593.09
2023-01-27T08:19:35.433Z,98595.53
2023-01-27T08:24:39.667Z,98598.94
2023-01-27T08:29:44.980Z,98604.50
2023-01-27T08:34:50.990Z,98605.69
2023-01-27T08:39:55.256Z,98604.88
2023-01-27T08:45:00.489Z,98603.03
2023-01-27T08:50:08.037Z,98600.63
2023-01-27T08:55:12.550Z,98600.44
2023-01-27T09:00:17.838Z,98603.88
2023-01-27T09:05:23.789Z,98605.59
2023-01-27T09:10:28.084Z,98615.81
2023-01-27T09:15:32.507Z,98614.00
2023-01-27T09:20:38.341Z,98622.94
2023-01-27T09:25:43.011Z,98628.22
2023-01-27T09:30:48.152Z,98631.44
2023-01-27T09:35:58.911Z,98629.75
2023-01-27T09:41:41.305Z,98639.16
2023-01-27T09:47:15.025Z,98639.19
2023-01-27T09:52:47.869Z,98640.06
2023-01-27T09:58:05.045Z,98642.69
2023-01-27T10:03:38.062Z,98648.16
2023-01-27T10:09:35.664Z,98644.97
2023-01-27T10:14:49.424Z,98651.94
2023-01-27T10:20:16.000Z,98648.78
2023-01-27T10:25:38.388Z,98644.88
2023-01-27T10:30:51.871Z,98643.66
2023-01-27T10:36:01.195Z,98650.22
2023-01-27T10:41:25.786Z,98649.09
2023-01-27T10:46:41.996Z,98645.13
2023-01-27T10:51:54.659Z,98650.88
2023-01-27T10:57:07.656Z,98655.38
2023-01-27T11:02:24.489Z,98651.88
2023-01-27T11:07:30.379Z,98644.91
2023-01-27T11:12:40.812Z,98649.81
2023-01-27T11:17:52.522Z,98643.06
2023-01-27T11:23:04.630Z,98638.34
2023-01-27T11:28:26.680Z,98639.25
2023-01-27T11:33:44.888Z,98636.91
2023-01-27T11:38:49.448Z,98625.97
2023-01-27T11:43:55.374Z,98620.53
2023-01-27T11:49:00.566Z,98627.72
2023-01-27T11:54:13.559Z,98626.81
2023-01-27T11:59:24.543Z,98633.69
2023-01-27T12:04:51.722Z,98627.63
2023-01-27T12:09:56.108Z,98635.63
2023-01-27T12:15:05.709Z,98636.56
2023-01-27T12:20:31.725Z,98636.28
2023-01-27T12:25:50.408Z,98630.19
2023-01-27T12:31:04.575Z,98622.91
2023-01-27T12:36:16.178Z,98618.59
2023-01-27T12:41:28.061Z,98614.81
2023-01-27T12:46:34.703Z,98621.06
2023-01-27T12:51:44.984Z,98625.28
2023-01-27T12:56:49.772Z,98636.56
2023-01-27T13:02:12.189Z,98632.56
2023-01-27T13:07:20.276Z,98632.56
2023-01-27T13:12:27.945Z,98638.53
2023-01-27T13:17:43.407Z,98638.22
2023-01-27T13:22:52.706Z,98639.34
2023-01-27T13:28:00.787Z,98646.94
2023-01-27T13:33:25.980Z,98648.47
2023-01-27T13:38:42.812Z,98654.22
2023-01-27T13:43:59.080Z,98655.06
2023-01-27T13:49:18.786Z,98662.53
2023-01-27T13:54:23.819Z,98662.16
2023-01-27T13:59:50.354Z,98664.25
2023-01-27T14:05:24.892Z,98668.97
2023-01-27T14:10:39.240Z,98680.34
2023-01-27T14:15:54.996Z,98680.31
2023-01-27T14:21:39.303Z,98678.66
2023-01-27T14:26:54.276Z,98688.00
2023-01-27T14:32:08.972Z,98689.44
2023-01-27T14:37:24.030Z,98685.69
2023-01-27T14:42:37.379Z,98687.25
2023-01-27T14:47:53.665Z,98687.03
2023-01-27T14:53:19.498Z,98690.81
2023-01-27T14:58:45.894Z,98681.38
2023-01-27T15:04:18.536Z,98683.66
2023-01-27T15:09:43.429Z,98686.22
2023-01-27T15:15:07.093Z,98676.25
2023-01-27T15:20:34.935Z,98677.25
2023-01-27T15:25:45.457Z,98679.00
2023-01-27T15:31:26.279Z,98689.97
2023-01-27T15:36:37.451Z,98684.16
2023-01-27T15:41:55.232Z,98695.09
2023-01-27T15:47:09.530Z,98696.34
2023-01-27T15:52:26.897Z,98700.53
2023-01-27T15:57:36.773Z,98701.47
2023-01-27T16:02:47.060Z,98711.81
2023-01-27T16:07:54.692Z,98700.72
2023-01-27T16:13:22.192Z,98723.81
2023-01-27T16:18:42.227Z,98723.31
2023-01-27T16:23:56.291Z,98728.63
2023-01-27T16:29:21.895Z,98724.97
2023-01-27T16:34:34.340Z,98735.44
2023-01-27T16:39:47.111Z,98731.66
2023-01-27T16:44:54.622Z,98729.06
2023-01-27T16:50:00.573Z,98732.47
2023-01-27T16:55:05.748Z,98727.75
2023-01-27T17:00:23.303Z,98725.50
2023-01-27T17:05:28.590Z,98721.38
2023-01-27T17:10:35.268Z,98724.97
2023-01-27T17:15:43.377Z,98729.38
2023-01-27T17:20:48.955Z,98737.81
2023-01-27T17:25:53.810Z,98727.88
2023-01-27T17:31:08.041Z,98737.31
2023-01-27T17:36:13.563Z,98742.94
2023-01-27T17:41:36.837Z,98742.00
2023-01-27T17:46:43.183Z,98752.44
2023-01-27T17:51:51.500Z,98749.78
2023-01-27T17:57:06.081Z,98737.47
2023-01-27T18:02:17.793Z,98741.81
2023-01-27T18:07:22.496Z,98753.94
2023-01-27T18:12:34.991Z,98760.06
2023-01-27T18:17:40.563Z,98754.63
2023-01-27T18:22:46.258Z,98757.38
2023-01-27T18:27:53.903Z,98758.59
2023-01-27T18:33:06.921Z,98768.78
2023-01-27T18:38:28.475Z,98768.56
2023-01-27T18:43:33.975Z,98774.44
2023-01-27T18:48:40.257Z,98779.72
2023-01-27T18:53:45.247Z,98770.13
2023-01-27T18:58:49.883Z,98771.59
2023-01-27T19:03:57.538Z,98773.91
2023-01-27T19:09:04.790Z,98781.31
2023-01-27T19:14:09.284Z,98787.72
2023-01-27T19:19:15.107Z,98796.59
2023-01-27T19:24:19.391Z,98800.97
2023-01-27T19:29:23.865Z,98801.91
2023-01-27T19:34:29.371Z,98811.34
2023-01-27T19:39:33.806Z,98805.56
2023-01-27T19:44:38.779Z,98810.78
2023-01-27T19:49:44.684Z,98806.59
2023-01-27T19:54:49.317Z,98809.63
2023-01-27T19:59:55.488Z,98811.72
2023-01-27T20:05:02.581Z,98811.06
2023-01-27T20:10:08.983Z,98816.94
2023-01-27T20:15:18.977Z,98818.78
2023-01-27T20:20:25.981Z,98810.06
2023-01-27T20:25:30.766Z,98814.28
2023-01-27T20:30:35.399Z,98825.28
2023-01-27T20:35:40.956Z,98827.00
2023-01-27T20:40:45.499Z,98831.31
2023-01-27T20:45:49.878Z,98828.28
2023-01-27T20:51:01.617Z,98826.94
2023-01-27T20:56:06.781Z,98825.91
2023-01-27T21:01:14.911Z,98832.63
2023-01-27T21:06:21.239Z,98830.94
2023-01-27T21:11:25.903Z,98832.06
2023-01-27T21:16:30.464Z,98824.19
2023-01-27T21:21:36.227Z,98836.53
2023-01-27T21:26:40.822Z,98828.66
2023-01-27T21:31:45.765Z,98837.28
2023-01-27T21:36:51.500Z,98839.84
2023-01-27T21:42:13.302Z,98834.97
2023-01-27T21:47:19.950Z,98834.06
2023-01-27T21:52:27.499Z,98831.97
2023-01-27T21:57:32.378Z,98828.28
2023-01-27T22:02:37.080Z,98822.44
2023-01-27T22:07:42.939Z,98822.25
2023-01-27T22:12:49.287Z,98822.69
2023-01-27T22:17:54.839Z,98815.09
2023-01-27T22:23:00.449Z,98817.13
2023-01-27T22:28:04.867Z,98811.66
2023-01-27T22:33:09.381Z,98812.44
2023-01-27T22:38:15.097Z,98810.16
2023-01-27T22:43:19.563Z,98808.25
2023-01-27T22:48:23.884Z,98805.97
2023-01-27T22:53:29.732Z,98806.41
2023-01-27T22:58:34.362Z,98804.22
2023-01-27T23:03:38.849Z,98793.34
2023-01-27T23:08:44.692Z,98800.94
2023-01-27T23:13:49.042Z,98792.22
2023-01-27T23:18:53.475Z,98792.59
2023-01-27T23:23:59.541Z,98786.53
2023-01-27T23:29:05.181Z,98788.47
2023-01-27T23:34:13.120Z,98784.72
2023-01-27T23:39:19.026Z,98781.59
2023-01-27T23:44:23.644Z,98779.13
2023-01-27T23:49:28.074Z,98784.66
2023-01-27T23:54:34.537Z,98782.53
2023-01-27T23:59:39.047Z,98777.50
